EGXC - Coningsby Royal Air Force Base
Distance from station: E 5mi, 14km
Updated: 06/24/2018 2:50am
Clear
Clear
 Wind from SE
Wind: SE 2 mph , 4 km/h
Temperature: 66°F , 19°C
Dew Point: 48°F , 9°C
Humidity: 52%
Barometer: 30.3 inHg , 1026 hPa
Summary: Clear
Visibility: greater than 7 miles , 10 km
2018/06/24 09:50 EGXC 240950Z 14002KT CAVOK 19/09 Q1026 BLU